createdAt,value
2022-10-23T00:01:15.001Z,7.80
2022-10-23T00:03:43.421Z,9.82
2022-10-23T00:06:12.136Z,8.77
2022-10-23T00:08:40.689Z,9.38
2022-10-23T00:11:10.079Z,8.97
2022-10-23T00:13:38.668Z,9.18
2022-10-23T00:16:07.378Z,13.10
2022-10-23T00:18:36.641Z,7.75
2022-10-23T00:21:05.557Z,7.65
2022-10-23T00:23:33.788Z,7.82
2022-10-23T00:26:01.789Z,9.27
2022-10-23T00:28:29.741Z,7.82
2022-10-23T00:30:57.781Z,7.85
2022-10-23T00:33:25.756Z,6.90
2022-10-23T00:35:55.005Z,8.23
2022-10-23T00:38:23.784Z,9.30
2022-10-23T00:40:52.269Z,9.02
2022-10-23T00:43:21.605Z,10.13
2022-10-23T00:45:49.708Z,9.90
2022-10-23T00:48:18.564Z,8.90
2022-10-23T00:50:48.983Z,8.18
2022-10-23T00:53:20.793Z,8.43
2022-10-23T00:55:51.742Z,7.53
2022-10-23T00:58:21.525Z,7.22
2022-10-23T01:00:52.284Z,6.90
2022-10-23T01:03:22.817Z,9.65
2022-10-23T01:05:57.348Z,8.05
2022-10-23T01:08:33.147Z,8.32
2022-10-23T01:11:08.957Z,11.10
2022-10-23T01:13:45.700Z,10.52
2022-10-23T01:16:18.252Z,10.63
2022-10-23T01:18:52.082Z,11.90
2022-10-23T01:21:29.892Z,14.90
2022-10-23T01:24:20.489Z,17.13
2022-10-23T01:26:57.208Z,15.47
2022-10-23T01:29:33.148Z,13.27
2022-10-23T01:32:05.885Z,14.17
2022-10-23T01:34:41.141Z,12.33
2022-10-23T01:37:12.435Z,14.53
2022-10-23T01:39:47.041Z,12.27
2022-10-23T01:42:20.295Z,15.87
2022-10-23T01:44:54.809Z,13.03
2022-10-23T01:47:29.877Z,13.30
2022-10-23T01:49:59.146Z,14.87
2022-10-23T01:52:27.206Z,11.87
2022-10-23T01:54:57.652Z,12.13
2022-10-23T01:57:28.933Z,12.70
2022-10-23T02:00:02.800Z,11.80
2022-10-23T02:02:34.071Z,11.03
2022-10-23T02:05:08.157Z,15.10
2022-10-23T02:07:36.842Z,10.47
2022-10-23T02:10:06.438Z,12.40
2022-10-23T02:12:41.591Z,12.43
2022-10-23T02:15:15.953Z,11.80
2022-10-23T02:17:52.438Z,14.90
2022-10-23T02:20:28.938Z,10.53
2022-10-23T02:23:02.669Z,10.50
2022-10-23T02:25:37.203Z,10.00
2022-10-23T02:28:10.773Z,10.87
2022-10-23T02:30:46.494Z,11.83
2022-10-23T02:33:15.702Z,11.43
2022-10-23T02:35:43.656Z,9.00
2022-10-23T02:38:31.734Z,10.63
2022-10-23T02:41:04.386Z,11.37
2022-10-23T02:43:38.274Z,7.93
2022-10-23T02:46:15.752Z,9.47
2022-10-23T02:48:49.532Z,10.07
2022-10-23T02:51:23.678Z,12.70
2022-10-23T02:54:02.626Z,8.00
2022-10-23T02:56:40.580Z,9.70
2022-10-23T02:59:16.665Z,7.73
2022-10-23T03:01:51.217Z,9.87
2022-10-23T03:04:22.374Z,9.40
2022-10-23T03:06:51.760Z,10.27
2022-10-23T03:09:20.127Z,10.90
2022-10-23T03:11:48.040Z,8.02
2022-10-23T03:14:16.077Z,8.70
2022-10-23T03:16:44.036Z,8.90
2022-10-23T03:19:14.265Z,8.57
2022-10-23T03:21:42.177Z,8.48
2022-10-23T03:24:10.210Z,9.13
2022-10-23T03:26:38.176Z,8.85
2022-10-23T03:29:06.095Z,8.25
2022-10-23T03:31:34.031Z,8.60
2022-10-23T03:34:04.101Z,10.65
2022-10-23T03:36:37.908Z,10.03
2022-10-23T03:39:05.928Z,9.18
2022-10-23T03:41:34.150Z,9.18
2022-10-23T03:44:02.141Z,7.75
2022-10-23T03:46:30.125Z,5.72
2022-10-23T03:48:59.007Z,7.32
2022-10-23T03:51:27.694Z,8.80
2022-10-23T03:53:57.036Z,5.30
2022-10-23T03:56:24.962Z,5.03
2022-10-23T03:58:52.895Z,5.13
2022-10-23T04:01:20.974Z,4.97
2022-10-23T04:03:48.900Z,5.95
2022-10-23T04:06:16.871Z,5.68
2022-10-23T04:08:45.206Z,5.78
2022-10-23T04:11:14.524Z,4.70
2022-10-23T04:13:42.405Z,4.05
2022-10-23T04:16:10.293Z,4.13
2022-10-23T04:18:38.231Z,4.45
2022-10-23T04:21:06.396Z,10.70
2022-10-23T04:23:34.761Z,4.38
2022-10-23T04:26:02.688Z,5.28
2022-10-23T04:28:31.964Z,3.95
2022-10-23T04:31:02.389Z,4.25
2022-10-23T04:33:30.339Z,4.40
2022-10-23T04:35:58.306Z,4.38
2022-10-23T04:38:26.569Z,4.68
2022-10-23T04:40:54.468Z,5.07
2022-10-23T04:43:22.405Z,6.00
2022-10-23T04:45:52.028Z,5.60
2022-10-23T04:48:20.019Z,6.43
2022-10-23T04:50:57.411Z,7.45
2022-10-23T04:53:25.676Z,6.35
2022-10-23T04:55:54.640Z,6.18
2022-10-23T04:58:22.960Z,4.10
2022-10-23T05:00:52.941Z,5.53
2022-10-23T05:03:21.621Z,5.75
2022-10-23T05:05:49.736Z,4.93
2022-10-23T05:08:18.295Z,5.63
2022-10-23T05:10:46.515Z,5.63
2022-10-23T05:13:14.783Z,6.20
2022-10-23T05:18:23.086Z,7.63
2022-10-23T05:20:55.360Z,5.25
2022-10-23T05:23:26.302Z,5.55
2022-10-23T05:25:54.676Z,5.47
2022-10-23T05:28:22.647Z,3.67
2022-10-23T05:30:52.726Z,4.65
2022-10-23T05:33:22.183Z,5.45
2022-10-23T05:35:50.345Z,4.35
2022-10-23T05:38:18.902Z,4.43
2022-10-23T05:40:46.780Z,3.28
2022-10-23T05:43:14.637Z,3.95
2022-10-23T05:45:42.549Z,3.58
2022-10-23T05:48:16.684Z,3.20
2022-10-23T05:50:51.744Z,5.85
2022-10-23T05:53:19.631Z,4.00
2022-10-23T05:55:47.529Z,4.93
2022-10-23T05:58:15.617Z,3.88
2022-10-23T06:00:43.528Z,4.03
2022-10-23T06:03:11.666Z,2.65
2022-10-23T06:08:14.047Z,3.17
2022-10-23T06:10:42.048Z,3.45
2022-10-23T06:13:10.180Z,4.30
2022-10-23T06:15:38.479Z,7.13
2022-10-23T06:18:07.142Z,7.53
2022-10-23T06:20:37.434Z,6.22
2022-10-23T06:23:05.430Z,7.13
2022-10-23T06:25:34.873Z,4.65
2022-10-23T06:28:02.789Z,4.50
2022-10-23T06:30:30.835Z,4.10
2022-10-23T06:33:02.046Z,6.20
2022-10-23T06:35:32.454Z,3.03
2022-10-23T06:38:00.373Z,4.13
2022-10-23T06:40:28.366Z,3.38
2022-10-23T06:42:58.178Z,4.70
2022-10-23T06:45:26.378Z,3.92
2022-10-23T06:47:54.391Z,3.38
2022-10-23T06:50:22.531Z,2.78
2022-10-23T06:52:50.494Z,3.55
2022-10-23T06:55:18.414Z,3.22
2022-10-23T06:57:46.642Z,3.67
2022-10-23T07:00:16.570Z,5.38
2022-10-23T07:02:45.022Z,5.85
2022-10-23T07:05:13.868Z,4.72
2022-10-23T07:07:42.041Z,4.13
2022-10-23T07:10:10.231Z,2.92
2022-10-23T07:12:38.204Z,4.40
2022-10-23T07:15:07.287Z,2.80
2022-10-23T07:17:36.634Z,3.33
2022-10-23T07:20:04.960Z,3.83
2022-10-23T07:22:33.235Z,3.53
2022-10-23T07:25:01.166Z,5.03
2022-10-23T07:27:29.387Z,3.55
2022-10-23T07:29:57.464Z,3.53
2022-10-23T07:32:28.120Z,3.00
2022-10-23T07:34:57.416Z,3.03
2022-10-23T07:37:29.941Z,2.78
2022-10-23T07:39:57.875Z,2.97
2022-10-23T07:42:26.148Z,3.83
2022-10-23T07:44:54.120Z,4.40
2022-10-23T07:47:22.041Z,3.22
2022-10-23T07:49:50.153Z,3.15
2022-10-23T07:52:19.479Z,3.58
2022-10-23T07:54:47.416Z,5.47
2022-10-23T07:57:15.369Z,3.90
2022-10-23T07:59:43.281Z,3.60
2022-10-23T08:02:13.351Z,3.40
2022-10-23T08:04:41.677Z,2.97
2022-10-23T08:07:09.669Z,3.28
2022-10-23T08:09:39.148Z,2.38
2022-10-23T08:12:07.505Z,3.28
2022-10-23T08:14:35.400Z,3.35
2022-10-23T08:17:05.253Z,3.95
2022-10-23T08:19:33.562Z,2.35
2022-10-23T08:22:01.550Z,1.90
2022-10-23T08:24:29.553Z,2.85
2022-10-23T08:26:59.454Z,2.10
2022-10-23T08:29:27.385Z,2.53
2022-10-23T08:31:57.427Z,2.13
2022-10-23T08:34:25.492Z,2.83
2022-10-23T08:36:53.385Z,3.83
2022-10-23T08:39:21.420Z,2.10
2022-10-23T08:41:52.331Z,2.88
2022-10-23T08:44:32.241Z,2.33
2022-10-23T08:47:05.120Z,2.25
2022-10-23T08:49:41.529Z,2.50
2022-10-23T08:52:16.852Z,2.70
2022-10-23T08:54:57.117Z,2.50
2022-10-23T08:57:33.478Z,2.70
2022-10-23T09:00:06.776Z,2.35
2022-10-23T09:02:39.640Z,2.35
2022-10-23T09:05:15.120Z,3.58
2022-10-23T09:07:58.563Z,2.22
2022-10-23T09:10:51.398Z,1.80
2022-10-23T09:13:41.724Z,1.70
2022-10-23T09:16:22.828Z,3.88
2022-10-23T09:18:51.503Z,1.90
2022-10-23T09:21:20.939Z,2.00
2022-10-23T09:23:49.004Z,2.28
2022-10-23T09:26:18.878Z,2.15
2022-10-23T09:28:49.065Z,2.83
2022-10-23T09:31:19.751Z,1.70
2022-10-23T09:33:58.600Z,2.13
2022-10-23T09:36:29.338Z,2.85
2022-10-23T09:39:00.147Z,3.80
2022-10-23T09:41:32.413Z,3.28
2022-10-23T09:44:18.861Z,2.15
2022-10-23T09:49:22.308Z,2.15
2022-10-23T09:52:00.004Z,2.42
2022-10-23T09:54:28.978Z,1.70
2022-10-23T09:56:59.827Z,2.00
2022-10-23T09:59:31.074Z,1.70
2022-10-23T10:02:03.973Z,1.70
2022-10-23T10:04:37.791Z,2.42
2022-10-23T10:07:07.791Z,1.30
2022-10-23T10:09:35.797Z,1.50
2022-10-23T10:12:25.764Z,1.30
2022-10-23T10:15:04.080Z,3.53
2022-10-23T10:17:44.656Z,1.70
2022-10-23T10:20:42.614Z,1.60
2022-10-23T10:23:19.089Z,1.15
2022-10-23T10:25:53.504Z,1.33
2022-10-23T10:28:33.209Z,1.38
2022-10-23T10:31:14.232Z,1.33
2022-10-23T10:33:56.696Z,1.13
2022-10-23T10:36:49.504Z,1.38
2022-10-23T10:39:28.928Z,1.77
2022-10-23T10:42:19.492Z,1.20
2022-10-23T10:45:01.662Z,2.00
2022-10-23T10:47:35.426Z,1.27
2022-10-23T10:50:16.665Z,1.05
2022-10-23T10:52:51.485Z,1.20
2022-10-23T10:55:26.176Z,1.73
2022-10-23T10:58:00.368Z,1.98
2022-10-23T11:00:31.433Z,1.40
2022-10-23T11:03:03.972Z,1.55
2022-10-23T11:05:37.312Z,1.83
2022-10-23T11:08:13.667Z,1.98
2022-10-23T11:10:45.699Z,1.90
2022-10-23T11:13:26.120Z,1.05
2022-10-23T11:15:59.138Z,1.15
2022-10-23T11:18:30.878Z,1.38
2022-10-23T11:21:10.773Z,1.88
2022-10-23T11:24:07.127Z,1.70
2022-10-23T11:26:46.925Z,1.52
2022-10-23T11:29:30.854Z,1.92
2022-10-23T11:32:15.712Z,2.47
2022-10-23T11:35:11.851Z,1.48
2022-10-23T11:37:42.456Z,1.30
2022-10-23T11:40:24.495Z,1.27
2022-10-23T11:42:53.549Z,1.33
2022-10-23T11:45:34.090Z,1.52
2022-10-23T11:48:03.693Z,1.70
2022-10-23T11:50:34.712Z,1.40
2022-10-23T11:53:15.089Z,1.23
2022-10-23T11:55:59.890Z,1.98
2022-10-23T11:58:32.720Z,1.67
2022-10-23T12:01:06.161Z,1.25
2022-10-23T12:03:42.772Z,1.40
2022-10-23T12:06:22.539Z,1.70
2022-10-23T12:08:56.080Z,1.63
2022-10-23T12:11:28.871Z,1.30
2022-10-23T12:13:57.909Z,1.30
2022-10-23T12:16:36.131Z,1.70
2022-10-23T12:19:20.477Z,2.58
2022-10-23T12:21:52.120Z,1.88
2022-10-23T12:24:59.409Z,1.60
2022-10-23T12:27:35.721Z,1.73
2022-10-23T12:30:22.040Z,1.45
2022-10-23T12:33:09.205Z,1.52
2022-10-23T12:36:12.357Z,1.20
2022-10-23T12:38:45.937Z,1.20
2022-10-23T12:41:18.294Z,1.30
2022-10-23T12:43:52.895Z,1.00
2022-10-23T12:46:31.688Z,1.13
2022-10-23T12:49:01.831Z,2.03
2022-10-23T12:51:31.836Z,1.35
2022-10-23T12:54:00.642Z,1.83
2022-10-23T12:56:36.902Z,1.20
2022-10-23T12:59:06.566Z,0.80
2022-10-23T13:01:39.357Z,1.00
2022-10-23T13:06:47.459Z,1.90
2022-10-23T13:09:24.665Z,3.22
2022-10-23T13:11:55.961Z,1.58
2022-10-23T13:14:39.455Z,1.15
2022-10-23T13:17:12.929Z,1.30
2022-10-23T13:19:40.913Z,1.48
2022-10-23T13:22:21.227Z,0.88
2022-10-23T13:24:49.541Z,1.02
2022-10-23T13:27:34.263Z,0.60
2022-10-23T13:30:04.030Z,0.95
2022-10-23T13:32:48.910Z,0.60
2022-10-23T13:35:23.474Z,1.25
2022-10-23T13:37:52.161Z,1.00
2022-10-23T13:40:26.197Z,0.90
2022-10-23T13:42:57.260Z,1.85
2022-10-23T13:45:27.072Z,1.98
2022-10-23T13:47:55.263Z,3.03
2022-10-23T13:50:23.253Z,1.05
2022-10-23T13:52:51.232Z,1.27
2022-10-23T13:55:23.546Z,0.98
2022-10-23T13:57:51.840Z,1.13
2022-10-23T14:00:21.477Z,1.23
2022-10-23T14:02:49.963Z,1.17
2022-10-23T14:05:17.917Z,1.00
2022-10-23T14:07:46.442Z,1.08
2022-10-23T14:10:14.601Z,2.05
2022-10-23T14:12:43.643Z,0.90
2022-10-23T14:15:13.144Z,1.35
2022-10-23T14:17:43.073Z,1.40
2022-10-23T14:20:12.166Z,1.92
2022-10-23T14:22:40.167Z,1.50
2022-10-23T14:25:08.602Z,1.02
2022-10-23T14:27:36.751Z,1.90
2022-10-23T14:30:05.447Z,1.08
2022-10-23T14:32:33.544Z,1.20
2022-10-23T14:35:03.975Z,1.45
2022-10-23T14:37:32.778Z,1.40
2022-10-23T14:40:01.292Z,1.40
2022-10-23T14:42:34.168Z,1.60
2022-10-23T14:45:02.814Z,1.52
2022-10-23T14:47:31.447Z,1.27
2022-10-23T14:49:59.475Z,1.40
2022-10-23T14:52:28.955Z,1.38
2022-10-23T14:54:57.152Z,1.30
2022-10-23T14:57:25.201Z,1.67
2022-10-23T14:59:53.183Z,2.47
2022-10-23T15:02:21.254Z,1.30
2022-10-23T15:04:49.412Z,1.30
2022-10-23T15:07:17.716Z,1.45
2022-10-23T15:09:47.297Z,2.08
2022-10-23T15:12:15.438Z,1.15
2022-10-23T15:14:43.399Z,1.50
2022-10-23T15:17:15.401Z,2.00
2022-10-23T15:19:43.892Z,2.78
2022-10-23T15:22:11.861Z,2.17
2022-10-23T15:24:39.937Z,1.63
2022-10-23T15:29:37.219Z,1.73
2022-10-23T15:32:07.762Z,3.75
2022-10-23T15:34:36.324Z,2.47
2022-10-23T15:37:05.507Z,3.15
2022-10-23T15:39:35.640Z,3.28
2022-10-23T15:42:06.266Z,2.97
2022-10-23T15:44:35.662Z,1.88
2022-10-23T15:47:03.637Z,3.33
2022-10-23T15:49:31.662Z,3.17
2022-10-23T15:52:00.252Z,3.15
2022-10-23T15:54:30.671Z,2.28
2022-10-23T15:57:00.845Z,6.20
2022-10-23T15:59:30.083Z,2.60
2022-10-23T16:01:59.806Z,2.55
2022-10-23T16:04:28.570Z,4.32
2022-10-23T16:06:56.479Z,3.88
2022-10-23T16:09:24.345Z,4.05
2022-10-23T16:11:52.291Z,4.63
2022-10-23T16:14:20.393Z,1.50
2022-10-23T16:16:48.322Z,1.58
2022-10-23T16:19:18.720Z,3.83
2022-10-23T16:21:46.642Z,4.07
2022-10-23T16:24:14.661Z,2.78
2022-10-23T16:26:42.872Z,8.25
2022-10-23T16:29:11.063Z,3.42
2022-10-23T16:31:38.979Z,1.50
2022-10-23T16:34:07.275Z,1.60
2022-10-23T16:36:39.149Z,1.77
2022-10-23T16:39:07.852Z,1.90
2022-10-23T16:41:35.992Z,1.58
2022-10-23T16:44:03.908Z,4.15
2022-10-23T16:46:32.032Z,4.97
2022-10-23T16:49:00.357Z,7.78
2022-10-23T16:51:29.762Z,1.92
2022-10-23T16:54:00.164Z,3.13
2022-10-23T16:56:29.996Z,1.98
2022-10-23T17:01:29.421Z,2.95
2022-10-23T17:03:58.187Z,1.80
2022-10-23T17:06:28.551Z,3.00
2022-10-23T17:08:58.863Z,1.38
2022-10-23T17:11:28.929Z,4.38
2022-10-23T17:13:59.885Z,1.67
2022-10-23T17:16:30.377Z,1.77
2022-10-23T17:18:58.609Z,2.28
2022-10-23T17:21:26.520Z,2.33
2022-10-23T17:23:54.577Z,1.75
2022-10-23T17:26:24.069Z,4.60
2022-10-23T17:28:52.649Z,3.45
2022-10-23T17:31:23.335Z,1.80
2022-10-23T17:33:53.247Z,1.55
2022-10-23T17:36:22.425Z,2.30
2022-10-23T17:38:51.022Z,2.63
2022-10-23T17:41:20.970Z,5.03
2022-10-23T17:43:50.807Z,5.47
2022-10-23T17:46:20.748Z,3.42
2022-10-23T17:48:48.850Z,3.17
2022-10-23T17:51:18.582Z,4.20
2022-10-23T17:53:48.590Z,2.88
2022-10-23T17:56:20.045Z,2.92
2022-10-23T17:58:48.233Z,4.13
2022-10-23T18:01:22.544Z,2.38
2022-10-23T18:03:50.524Z,2.30
2022-10-23T18:06:23.403Z,4.35
2022-10-23T18:08:54.281Z,2.92
2022-10-23T18:11:24.539Z,2.40
2022-10-23T18:13:53.108Z,3.22
2022-10-23T18:16:22.874Z,3.05
2022-10-23T18:18:51.741Z,2.50
2022-10-23T18:21:20.771Z,5.60
2022-10-23T18:23:49.153Z,3.10
2022-10-23T18:26:19.215Z,2.05
2022-10-23T18:28:48.863Z,2.30
2022-10-23T18:31:18.978Z,1.77
2022-10-23T18:33:48.754Z,2.10
2022-10-23T18:36:20.046Z,2.30
2022-10-23T18:38:48.077Z,3.97
2022-10-23T18:41:16.590Z,2.78
2022-10-23T18:43:45.371Z,2.03
2022-10-23T18:46:14.425Z,2.65
2022-10-23T18:48:43.452Z,2.63
2022-10-23T18:51:17.234Z,3.63
2022-10-23T18:53:46.995Z,2.63
2022-10-23T18:56:15.549Z,2.53
2022-10-23T18:58:43.804Z,4.18
2022-10-23T19:01:11.963Z,3.03
2022-10-23T19:03:39.942Z,3.78
2022-10-23T19:06:08.268Z,4.47
2022-10-23T19:08:39.905Z,3.70
2022-10-23T19:11:08.965Z,3.90
2022-10-23T19:13:39.185Z,3.20
2022-10-23T19:16:10.961Z,4.05
2022-10-23T19:18:39.897Z,4.35
2022-10-23T19:21:08.209Z,4.35
2022-10-23T19:23:44.304Z,4.53
2022-10-23T19:26:14.121Z,4.15
2022-10-23T19:28:45.523Z,7.00
2022-10-23T19:31:13.790Z,3.60
2022-10-23T19:33:41.967Z,3.70
2022-10-23T19:36:14.127Z,6.93
2022-10-23T19:38:44.197Z,4.40
2022-10-23T19:41:12.472Z,5.20
2022-10-23T19:43:40.505Z,3.88
2022-10-23T19:46:12.117Z,4.95
2022-10-23T19:48:44.338Z,3.05
2022-10-23T19:51:14.595Z,12.63
2022-10-23T19:53:44.485Z,11.98
2022-10-23T19:56:13.660Z,5.90
2022-10-23T19:58:42.189Z,3.88
2022-10-23T20:01:13.440Z,4.55
2022-10-23T20:03:42.877Z,4.85
2022-10-23T20:06:12.708Z,5.20
2022-10-23T20:08:40.813Z,5.65
2022-10-23T20:11:19.402Z,3.72
2022-10-23T20:13:48.567Z,3.35
2022-10-23T20:16:20.722Z,5.28
2022-10-23T20:18:48.780Z,5.03
2022-10-23T20:21:17.355Z,4.90
2022-10-23T20:23:45.873Z,3.83
2022-10-23T20:26:17.483Z,7.35
2022-10-23T20:28:47.142Z,5.13
2022-10-23T20:31:16.572Z,4.35
2022-10-23T20:33:44.669Z,5.00
2022-10-23T20:36:24.670Z,4.65
2022-10-23T20:38:53.234Z,3.38
2022-10-23T20:41:25.057Z,3.75
2022-10-23T20:43:52.980Z,3.20
2022-10-23T20:46:20.925Z,3.38
2022-10-23T20:48:48.935Z,5.22
2022-10-23T20:51:19.984Z,7.85
2022-10-23T20:53:49.138Z,4.78
2022-10-23T20:56:19.429Z,4.03
2022-10-23T20:58:49.113Z,4.20
2022-10-23T21:01:18.974Z,3.75
2022-10-23T21:03:51.354Z,4.07
2022-10-23T21:06:20.027Z,3.70
2022-10-23T21:08:48.320Z,3.20
2022-10-23T21:11:17.903Z,3.95
2022-10-23T21:13:46.389Z,3.40
2022-10-23T21:16:18.305Z,3.63
2022-10-23T21:18:47.140Z,4.32
2022-10-23T21:21:17.303Z,3.47
2022-10-23T21:23:45.336Z,3.88
2022-10-23T21:26:13.785Z,4.68
2022-10-23T21:28:47.353Z,3.35
2022-10-23T21:31:25.777Z,3.80
2022-10-23T21:33:53.956Z,4.25
2022-10-23T21:36:24.028Z,4.18
2022-10-23T21:38:54.415Z,6.68
2022-10-23T21:41:24.879Z,5.50
2022-10-23T21:43:54.990Z,3.80
2022-10-23T21:46:25.602Z,7.60
2022-10-23T21:48:54.152Z,6.25
2022-10-23T21:51:24.805Z,3.17
2022-10-23T21:53:54.962Z,3.20
2022-10-23T21:56:30.549Z,5.78
2022-10-23T21:58:58.927Z,4.45
2022-10-23T22:01:31.901Z,3.78
2022-10-23T22:04:00.085Z,5.70
2022-10-23T22:06:30.283Z,3.45
2022-10-23T22:09:00.407Z,4.80
2022-10-23T22:11:30.067Z,9.95
2022-10-23T22:13:59.610Z,4.03
2022-10-23T22:16:28.206Z,4.28
2022-10-23T22:18:57.552Z,3.08
2022-10-23T22:21:28.569Z,4.53
2022-10-23T22:23:58.561Z,4.45
2022-10-23T22:26:28.840Z,5.50
2022-10-23T22:28:58.232Z,3.42
2022-10-23T22:31:29.056Z,5.10
2022-10-23T22:33:59.129Z,4.00
2022-10-23T22:36:27.877Z,3.70
2022-10-23T22:38:57.094Z,5.13
2022-10-23T22:41:25.565Z,4.63
2022-10-23T22:43:56.453Z,4.57
2022-10-23T22:46:26.060Z,6.13
2022-10-23T22:48:54.528Z,7.00
2022-10-23T22:51:25.937Z,5.20
2022-10-23T22:53:53.898Z,6.47
2022-10-23T22:56:23.476Z,5.93
2022-10-23T22:58:51.776Z,5.25
2022-10-23T23:01:23.446Z,6.15
2022-10-23T23:03:52.104Z,6.47
2022-10-23T23:06:20.971Z,5.05
2022-10-23T23:08:51.431Z,4.97
2022-10-23T23:11:21.725Z,5.22
2022-10-23T23:13:50.922Z,4.90
2022-10-23T23:16:21.349Z,6.10
2022-10-23T23:18:49.316Z,4.23
2022-10-23T23:21:17.962Z,4.32
2022-10-23T23:23:46.423Z,7.60
2022-10-23T23:26:16.689Z,5.03
2022-10-23T23:28:45.795Z,5.43
2022-10-23T23:31:17.641Z,4.93
2022-10-23T23:33:45.636Z,4.97
2022-10-23T23:36:15.605Z,5.35
2022-10-23T23:38:43.529Z,4.77
2022-10-23T23:41:14.050Z,4.43
2022-10-23T23:43:44.034Z,5.67
2022-10-23T23:46:12.759Z,4.53
2022-10-23T23:48:42.370Z,5.35
2022-10-23T23:51:10.261Z,4.63
2022-10-23T23:53:38.203Z,3.93
2022-10-23T23:56:06.654Z,5.55
2022-10-23T23:58:34.572Z,6.80
